Time;durP1;ratioP1;P1;durP2;ratioP2;P2;SDS_P1;SDS_P2;PMS_P1;PMS_P2;Temp;Humidity;BMP_temperature;BMP_pressure;BME280_temperature;BME280_humidity;BME280_pressure;Samples;Min_cycle;Max_cycle;Signal;HPM_P1;HPM_P2
2023/07/01 00:01:08;;;;;;;4.97;4.10;;;16.80;99.90;;;;;;5064667;28;20207;-77
2023/07/01 00:03:36;;;;;;;4.80;4.30;;;16.80;99.90;;;;;;5059871;28;20230;-77
2023/07/01 00:06:03;;;;;;;5.80;4.90;;;16.80;99.90;;;;;;5062992;28;20194;-78
2023/07/01 00:08:30;;;;;;;4.87;4.37;;;16.80;99.90;;;;;;5058236;28;20222;-78
2023/07/01 00:11:00;;;;;;;5.63;4.37;;;16.80;99.90;;;;;;5068674;28;20201;-77
2023/07/01 00:13:27;;;;;;;5.53;4.57;;;16.80;99.90;;;;;;5069593;28;20222;-77
2023/07/01 00:15:55;;;;;;;5.57;4.30;;;16.80;99.90;;;;;;5064083;28;20194;-78
2023/07/01 00:18:23;;;;;;;4.73;4.30;;;16.80;99.90;;;;;;5065947;28;20223;-78
2023/07/01 00:20:50;;;;;;;6.00;4.23;;;16.80;99.90;;;;;;5068795;28;20222;-78
2023/07/01 00:23:17;;;;;;;9.20;4.87;;;16.80;99.90;;;;;;5058916;28;20222;-78
2023/07/01 00:25:44;;;;;;;6.07;4.73;;;16.70;99.90;;;;;;5052483;28;20476;-78
2023/07/01 00:28:10;;;;;;;4.93;4.43;;;16.70;99.90;;;;;;5066791;28;20197;-79
2023/07/01 00:30:37;;;;;;;4.70;4.20;;;16.70;99.90;;;;;;5068071;28;20194;-78
2023/07/01 00:33:05;;;;;;;4.90;4.33;;;16.60;99.90;;;;;;5064848;28;20719;-77
2023/07/01 00:35:33;;;;;;;5.10;4.60;;;16.60;99.90;;;;;;5066720;28;20241;-77
2023/07/01 00:38:00;;;;;;;6.53;4.50;;;16.70;99.90;;;;;;5068051;28;20658;-79
2023/07/01 00:40:27;;;;;;;4.83;4.27;;;16.70;99.90;;;;;;5065299;28;20226;-79
2023/07/01 00:42:54;;;;;;;5.87;4.10;;;16.70;99.90;;;;;;5074746;28;20221;-79
2023/07/01 00:45:20;;;;;;;4.60;4.20;;;16.70;99.90;;;;;;5071670;28;20205;-78
2023/07/01 00:47:47;;;;;;;4.67;4.23;;;16.70;99.90;;;;;;5072564;28;20191;-77
2023/07/01 00:50:15;;;;;;;4.83;4.43;;;16.70;99.90;;;;;;5065891;28;20257;-79
2023/07/01 00:52:44;;;;;;;6.07;5.57;;;16.60;99.90;;;;;;5063330;28;20229;-76
2023/07/01 00:55:12;;;;;;;5.97;5.47;;;16.60;99.90;;;;;;5067991;28;20623;-79
2023/07/01 00:57:39;;;;;;;5.37;3.87;;;16.60;99.90;;;;;;5069831;28;20210;-77
2023/07/01 01:00:10;;;;;;;4.90;4.00;;;16.60;99.90;;;;;;5072866;28;20225;-79
2023/07/01 01:02:46;;;;;;;5.43;4.63;;;16.60;99.90;;;;;;5066314;28;20272;-76
2023/07/01 01:05:17;;;;;;;8.37;7.57;;;16.50;99.90;;;;;;5070285;28;20206;-78
2023/07/01 01:07:52;;;;;;;9.37;8.43;;;16.50;99.90;;;;;;5069357;28;20217;-77
2023/07/01 01:10:23;;;;;;;6.07;4.03;;;16.50;99.90;;;;;;5069201;28;20680;-78
2023/07/01 01:12:54;;;;;;;5.43;4.00;;;16.40;99.90;;;;;;5066879;28;20704;-79
2023/07/01 01:15:21;;;;;;;5.23;4.13;;;16.40;99.90;;;;;;5066398;28;20203;-76
2023/07/01 01:17:52;;;;;;;4.73;4.00;;;16.30;99.90;;;;;;5073069;28;20606;-77
2023/07/01 01:20:21;;;;;;;4.27;3.70;;;16.30;99.90;;;;;;5069583;28;20232;-78
2023/07/01 01:22:50;;;;;;;4.37;3.97;;;16.30;99.90;;;;;;5062671;28;20688;-76
2023/07/01 01:25:24;;;;;;;6.00;4.43;;;16.30;99.90;;;;;;5060281;28;20202;-77
2023/07/01 01:27:53;;;;;;;5.17;4.40;;;16.20;99.90;;;;;;5067657;28;20198;-78
2023/07/01 01:30:22;;;;;;;4.43;4.00;;;16.20;99.90;;;;;;5071988;28;20267;-79
2023/07/01 01:32:49;;;;;;;4.13;3.73;;;16.20;99.90;;;;;;5062892;28;20210;-79
2023/07/01 01:35:15;;;;;;;4.67;3.90;;;16.20;99.90;;;;;;5069144;28;20203;-78
2023/07/01 01:37:48;;;;;;;4.93;4.27;;;16.30;99.90;;;;;;5070880;28;20635;-77
2023/07/01 01:40:22;;;;;;;4.80;4.27;;;16.30;99.90;;;;;;5046020;28;20212;-79
2023/07/01 01:42:51;;;;;;;4.20;3.80;;;16.30;99.90;;;;;;5050468;28;20225;-79
2023/07/01 01:45:21;;;;;;;5.10;4.33;;;16.30;99.90;;;;;;5050616;28;20220;-78
2023/07/01 01:47:49;;;;;;;4.87;4.03;;;16.30;99.90;;;;;;5051571;28;20661;-78
2023/07/01 01:50:19;;;;;;;4.93;3.80;;;16.40;99.90;;;;;;5068994;28;20198;-77
2023/07/01 01:52:48;;;;;;;5.33;4.20;;;16.40;99.90;;;;;;5072012;28;20226;-77
2023/07/01 01:55:17;;;;;;;4.53;4.07;;;16.40;99.90;;;;;;5069390;28;20386;-77
2023/07/01 01:57:44;;;;;;;4.70;4.10;;;16.50;99.90;;;;;;5070244;28;20204;-77
2023/07/01 02:00:13;;;;;;;4.50;4.00;;;16.50;99.90;;;;;;5067546;28;20952;-77
2023/07/01 02:02:45;;;;;;;4.07;3.50;;;16.50;99.90;;;;;;5072019;28;20211;-78
2023/07/01 02:05:11;;;;;;;4.40;4.00;;;16.50;99.90;;;;;;5067889;28;20764;-77
2023/07/01 02:07:39;;;;;;;4.83;3.60;;;16.50;99.90;;;;;;5067357;28;20571;-78
2023/07/01 02:10:07;;;;;;;4.97;4.40;;;16.40;99.90;;;;;;5072600;28;20195;-76
2023/07/01 02:12:35;;;;;;;4.23;3.83;;;16.50;99.90;;;;;;5072299;28;20632;-77
2023/07/01 02:15:02;;;;;;;6.27;4.53;;;16.50;99.90;;;;;;5065150;28;20202;-78
2023/07/01 02:17:29;;;;;;;4.43;3.57;;;16.50;99.90;;;;;;5063019;28;20202;-78
2023/07/01 02:19:57;;;;;;;4.70;3.60;;;16.50;99.90;;;;;;5069554;28;20281;-79
2023/07/01 02:22:24;;;;;;;4.13;3.73;;;16.50;99.90;;;;;;5062413;28;20223;-77
2023/07/01 02:24:51;;;;;;;4.53;3.77;;;16.50;99.90;;;;;;5063962;28;20570;-78
2023/07/01 02:27:19;;;;;;;5.33;3.93;;;16.50;99.90;;;;;;5076811;28;20565;-79
2023/07/01 02:29:47;;;;;;;6.23;4.20;;;16.60;99.90;;;;;;5070566;28;20194;-77
2023/07/01 02:32:14;;;;;;;4.37;3.90;;;16.60;99.90;;;;;;5069979;28;20305;-79
2023/07/01 02:34:41;;;;;;;6.37;5.87;;;16.60;99.90;;;;;;5070619;28;20199;-79
2023/07/01 02:37:09;;;;;;;5.93;5.13;;;16.60;99.90;;;;;;5069368;28;20603;-78
2023/07/01 02:39:36;;;;;;;5.93;4.50;;;16.60;99.90;;;;;;5062182;28;20211;-76
2023/07/01 02:42:03;;;;;;;5.43;4.83;;;16.60;99.90;;;;;;5062698;28;20210;-77
2023/07/01 02:44:29;;;;;;;6.60;5.80;;;16.60;99.90;;;;;;5051406;28;20207;-77
2023/07/01 02:46:56;;;;;;;6.57;6.03;;;16.60;99.90;;;;;;5068324;28;20202;-77
2023/07/01 02:49:23;;;;;;;6.70;6.10;;;16.60;99.90;;;;;;5067122;28;20194;-77
2023/07/01 02:51:50;;;;;;;6.83;6.23;;;16.60;99.90;;;;;;5068825;28;20225;-79
2023/07/01 02:54:18;;;;;;;6.77;6.17;;;16.60;99.90;;;;;;5069337;28;20207;-78
2023/07/01 02:56:45;;;;;;;6.97;6.40;;;16.60;99.90;;;;;;5071016;28;20194;-78
2023/07/01 02:59:11;;;;;;;6.93;6.33;;;16.60;99.90;;;;;;5061920;28;20785;-78
2023/07/01 03:01:39;;;;;;;7.23;6.60;;;16.60;99.90;;;;;;5071990;28;20288;-78
2023/07/01 03:04:07;;;;;;;7.33;6.73;;;16.60;99.90;;;;;;5069867;28;20199;-77
2023/07/01 03:06:35;;;;;;;6.90;6.33;;;16.60;99.90;;;;;;5068416;28;20205;-77
2023/07/01 03:09:07;;;;;;;7.23;6.70;;;16.50;99.90;;;;;;5062802;28;20286;-77
2023/07/01 03:11:35;;;;;;;7.43;6.83;;;16.50;99.90;;;;;;5056919;28;20219;-77
2023/07/01 03:14:02;;;;;;;7.63;7.03;;;16.50;99.90;;;;;;5058332;28;20194;-77
2023/07/01 03:16:30;;;;;;;7.50;6.80;;;16.50;99.90;;;;;;5058577;28;20666;-77
2023/07/01 03:18:58;;;;;;;7.67;7.03;;;16.50;99.90;;;;;;5065059;28;20206;-77
2023/07/01 03:21:25;;;;;;;7.27;6.67;;;16.40;99.90;;;;;;5067276;28;20206;-79
2023/07/01 03:23:52;;;;;;;7.30;6.67;;;16.40;99.90;;;;;;5049130;28;20222;-80
2023/07/01 03:26:20;;;;;;;7.00;6.50;;;16.40;99.90;;;;;;5050536;28;20699;-80
2023/07/01 03:28:48;;;;;;;6.47;5.97;;;16.30;99.90;;;;;;5067248;28;20198;-76
2023/07/01 03:31:15;;;;;;;3.93;3.60;;;16.30;99.90;;;;;;5043561;28;20194;-77
2023/07/01 03:33:41;;;;;;;4.60;3.53;;;16.30;99.90;;;;;;5051026;28;20286;-77
2023/07/01 03:36:08;;;;;;;4.10;3.70;;;16.30;99.90;;;;;;5053972;28;20205;-77
2023/07/01 03:38:35;;;;;;;4.40;3.80;;;16.30;99.90;;;;;;5048543;28;20203;-77
2023/07/01 03:41:02;;;;;;;4.57;4.00;;;16.30;99.90;;;;;;5053668;28;20223;-77
2023/07/01 03:43:29;;;;;;;5.03;4.10;;;16.30;99.90;;;;;;5043106;28;20647;-76
2023/07/01 03:45:57;;;;;;;6.00;4.00;;;16.30;99.90;;;;;;5047307;28;20198;-77
2023/07/01 03:48:24;;;;;;;5.27;4.30;;;16.30;99.90;;;;;;5045092;28;20252;-77
2023/07/01 03:50:50;;;;;;;4.83;3.80;;;16.30;99.90;;;;;;5042621;28;20191;-77
2023/07/01 03:53:17;;;;;;;3.70;3.40;;;16.40;99.90;;;;;;5046548;28;20292;-78
2023/07/01 03:55:44;;;;;;;4.17;3.60;;;16.40;99.90;;;;;;5048506;28;20200;-77
2023/07/01 03:58:11;;;;;;;4.53;4.07;;;16.40;99.90;;;;;;5042788;28;20199;-77
2023/07/01 04:00:38;;;;;;;7.13;6.53;;;16.50;99.90;;;;;;5046924;28;20214;-77
2023/07/01 04:03:08;;;;;;;7.00;6.50;;;16.60;99.90;;;;;;5043653;28;20218;-79
2023/07/01 04:05:36;;;;;;;7.17;6.47;;;16.60;99.90;;;;;;5052003;28;20543;-78
2023/07/01 04:08:03;;;;;;;6.43;5.93;;;16.60;99.90;;;;;;5045008;28;20196;-77
2023/07/01 04:10:30;;;;;;;4.23;3.83;;;16.60;99.90;;;;;;5054935;28;20226;-78
2023/07/01 04:12:58;;;;;;;5.03;3.80;;;16.70;99.90;;;;;;5060262;28;20219;-77
2023/07/01 04:15:25;;;;;;;4.27;3.87;;;16.70;99.90;;;;;;5058609;28;20225;-77
2023/07/01 04:17:52;;;;;;;5.90;4.00;;;16.70;99.90;;;;;;5063628;28;20210;-76
2023/07/01 04:20:20;;;;;;;4.60;4.20;;;16.70;99.90;;;;;;5069022;28;20214;-77
2023/07/01 04:22:48;;;;;;;4.57;3.83;;;16.70;99.90;;;;;;5063516;28;20272;-77
2023/07/01 04:25:15;;;;;;;5.00;3.67;;;16.70;99.90;;;;;;5065261;28;20222;-77
2023/07/01 04:27:43;;;;;;;4.53;3.77;;;16.70;99.90;;;;;;5068425;28;20194;-76
2023/07/01 04:30:12;;;;;;;3.90;3.50;;;16.80;99.90;;;;;;5058776;28;20190;-77
2023/07/01 04:32:38;;;;;;;3.70;3.40;;;16.80;99.90;;;;;;5069982;28;20696;-76
2023/07/01 04:35:06;;;;;;;4.10;3.70;;;16.90;99.90;;;;;;5064591;28;20216;-77
2023/07/01 04:37:34;;;;;;;5.67;5.17;;;16.90;99.90;;;;;;5062342;28;20259;-77
2023/07/01 04:40:02;;;;;;;7.07;6.57;;;16.90;99.90;;;;;;5058872;28;20268;-78
2023/07/01 04:42:30;;;;;;;7.20;6.70;;;17.00;99.90;;;;;;5060895;28;20314;-76
2023/07/01 04:44:56;;;;;;;4.70;4.30;;;17.00;99.90;;;;;;5059586;28;20198;-78
2023/07/01 04:47:23;;;;;;;3.70;3.40;;;17.10;99.90;;;;;;5062635;28;20230;-79
2023/07/01 04:49:52;;;;;;;3.80;3.50;;;17.10;99.90;;;;;;5065066;28;20580;-84
2023/07/01 04:52:19;;;;;;;5.30;4.80;;;17.30;99.90;;;;;;5067851;28;20612;-79
2023/07/01 04:54:47;;;;;;;5.73;5.13;;;17.60;99.90;;;;;;5070438;28;20225;-80
2023/07/01 04:57:15;;;;;;;5.53;4.10;;;18.10;99.90;;;;;;5067707;28;20249;-80
2023/07/01 04:59:41;;;;;;;4.50;3.60;;;18.50;99.90;;;;;;5064305;28;20208;-80
2023/07/01 05:02:08;;;;;;;4.70;3.70;;;18.70;99.90;;;;;;5033238;28;20311;-76
2023/07/01 05:04:37;;;;;;;5.23;4.73;;;18.80;99.90;;;;;;5035997;28;20207;-76
2023/07/01 05:07:04;;;;;;;7.70;4.20;;;18.90;99.90;;;;;;5046368;28;20662;-76
2023/07/01 05:09:31;;;;;;;5.43;4.93;;;18.90;99.90;;;;;;5039850;28;20222;-76
2023/07/01 05:11:59;;;;;;;4.00;3.57;;;19.00;99.90;;;;;;5045217;28;20577;-76
2023/07/01 05:14:26;;;;;;;4.90;3.60;;;19.10;99.90;;;;;;5044869;28;20199;-76
2023/07/01 05:16:53;;;;;;;4.07;3.60;;;19.20;99.90;;;;;;5048387;28;20265;-77
2023/07/01 05:19:20;;;;;;;8.63;7.83;;;19.40;99.90;;;;;;5045133;28;20210;-76
2023/07/01 05:21:51;;;;;;;5.80;5.30;;;19.50;99.90;;;;;;5050765;28;20250;-77
2023/07/01 05:24:18;;;;;;;4.70;4.10;;;19.50;99.90;;;;;;5050174;28;20233;-76
2023/07/01 05:26:46;;;;;;;4.03;3.63;;;19.50;99.90;;;;;;5054193;28;20203;-79
2023/07/01 05:29:14;;;;;;;4.00;3.53;;;19.50;99.90;;;;;;5054690;28;20242;-80
2023/07/01 05:31:41;;;;;;;6.77;5.53;;;19.60;99.90;;;;;;5048342;28;20712;-76
2023/07/01 05:34:08;;;;;;;5.83;5.33;;;19.50;99.90;;;;;;5050576;28;20195;-76
2023/07/01 05:36:36;;;;;;;4.37;3.93;;;19.60;99.90;;;;;;5051128;28;20678;-76
2023/07/01 05:39:04;;;;;;;5.00;4.50;;;19.70;99.90;;;;;;5053808;28;20207;-77
2023/07/01 05:41:31;;;;;;;5.03;3.87;;;19.90;99.90;;;;;;5051284;28;20215;-76
2023/07/01 05:43:57;;;;;;;7.80;5.27;;;20.10;99.90;;;;;;5051506;28;20286;-76
2023/07/01 05:46:26;;;;;;;8.77;5.37;;;20.50;99.90;;;;;;5053940;28;20203;-76
2023/07/01 05:48:53;;;;;;;5.70;4.03;;;21.00;99.90;;;;;;5038894;28;20789;-77
2023/07/01 05:51:20;;;;;;;5.30;4.80;;;21.40;99.90;;;;;;5049536;28;20199;-76
2023/07/01 05:53:46;;;;;;;7.63;6.63;;;21.80;99.90;;;;;;5048869;28;20287;-77
2023/07/01 05:56:13;;;;;;;5.47;5.07;;;22.30;99.90;;;;;;5051845;28;20203;-76
2023/07/01 05:58:40;;;;;;;8.10;7.43;;;22.80;99.90;;;;;;5043966;28;20223;-77
2023/07/01 06:01:07;;;;;;;5.73;5.27;;;23.10;99.90;;;;;;5050584;28;20218;-76
2023/07/01 06:03:35;;;;;;;6.17;5.67;;;23.50;99.90;;;;;;5058088;28;20235;-80
2023/07/01 06:06:02;;;;;;;5.20;4.70;;;23.90;99.90;;;;;;5047719;28;20231;-77
2023/07/01 06:08:28;;;;;;;7.63;6.93;;;24.20;99.90;;;;;;5051662;28;20207;-77
2023/07/01 06:10:55;;;;;;;5.93;4.80;;;24.40;99.90;;;;;;5058252;28;20293;-76
2023/07/01 06:13:22;;;;;;;5.47;4.97;;;24.60;99.90;;;;;;5054724;28;20215;-77
2023/07/01 06:15:49;;;;;;;6.80;4.50;;;24.90;99.90;;;;;;5053663;28;20203;-77
2023/07/01 06:18:15;;;;;;;6.37;5.83;;;25.00;99.90;;;;;;5046983;28;20673;-76
2023/07/01 06:20:44;;;;;;;6.37;5.40;;;25.30;99.90;;;;;;5051927;28;20258;-78
2023/07/01 06:23:10;;;;;;;9.17;8.47;;;25.50;99.90;;;;;;5053457;28;20710;-77
2023/07/01 06:25:38;;;;;;;8.60;7.90;;;25.80;99.90;;;;;;5042114;28;20257;-77
2023/07/01 06:28:05;;;;;;;9.00;8.40;;;25.70;99.90;;;;;;5046704;28;20628;-78
2023/07/01 06:30:31;;;;;;;9.10;8.40;;;25.50;99.90;;;;;;5034414;28;20220;-76
2023/07/01 06:32:58;;;;;;;8.23;7.53;;;25.80;99.90;;;;;;5041435;28;20316;-77
2023/07/01 06:35:25;;;;;;;7.90;7.33;;;25.80;99.90;;;;;;5040967;28;20551;-76
2023/07/01 06:37:53;;;;;;;9.07;8.33;;;26.00;99.90;;;;;;5044562;28;20727;-76
2023/07/01 06:40:20;;;;;;;8.63;7.87;;;26.00;99.90;;;;;;5043332;28;20217;-76
2023/07/01 06:42:47;;;;;;;10.23;8.77;;;26.10;99.90;;;;;;5044352;28;20298;-76
2023/07/01 06:45:14;;;;;;;9.37;8.57;;;26.10;99.90;;;;;;5048484;28;20901;-77
2023/07/01 06:47:40;;;;;;;8.30;7.70;;;26.10;99.90;;;;;;5050538;28;20222;-79
2023/07/01 06:50:08;;;;;;;7.87;7.23;;;26.10;99.90;;;;;;5052819;28;20555;-80
2023/07/01 06:52:35;;;;;;;8.60;7.90;;;26.30;99.90;;;;;;5047588;28;20640;-80
2023/07/01 06:55:04;;;;;;;8.43;7.77;;;26.30;99.90;;;;;;5051175;28;20631;-77
2023/07/01 06:57:31;;;;;;;7.80;6.50;;;26.50;99.90;;;;;;5049867;28;20237;-78
2023/07/01 06:59:58;;;;;;;7.30;6.70;;;26.50;99.90;;;;;;5043234;28;20226;-78
2023/07/01 07:02:25;;;;;;;7.20;6.67;;;26.70;99.90;;;;;;5046646;28;20227;-78
2023/07/01 07:04:52;;;;;;;7.30;6.60;;;27.00;99.90;;;;;;5045133;28;20239;-77
2023/07/01 07:07:19;;;;;;;6.20;5.80;;;27.20;99.90;;;;;;5044792;28;20274;-77
2023/07/01 07:09:46;;;;;;;7.20;6.60;;;27.30;99.90;;;;;;5046473;28;20196;-77
2023/07/01 07:12:14;;;;;;;6.80;6.20;;;27.30;99.90;;;;;;5046419;28;20214;-77
2023/07/01 07:14:41;;;;;;;8.00;7.30;;;27.20;99.90;;;;;;5055719;28;20723;-77
2023/07/01 07:17:08;;;;;;;6.43;5.80;;;27.20;99.90;;;;;;5058371;28;20188;-77
2023/07/01 07:19:34;;;;;;;7.57;6.87;;;27.30;99.90;;;;;;5053543;28;20278;-77
2023/07/01 07:22:01;;;;;;;7.73;7.13;;;27.30;99.90;;;;;;5072868;28;20226;-80
2023/07/01 07:24:28;;;;;;;8.43;7.50;;;27.40;99.90;;;;;;5065587;28;20286;-80
2023/07/01 07:26:57;;;;;;;7.97;7.30;;;27.60;99.90;;;;;;5046809;28;20431;-78
2023/07/01 07:29:25;;;;;;;7.73;7.03;;;27.70;99.90;;;;;;5055618;28;20673;-80
2023/07/01 07:31:52;;;;;;;8.20;7.53;;;27.80;99.90;;;;;;5066341;28;20280;-78
2023/07/01 07:34:19;;;;;;;7.80;7.17;;;27.70;99.90;;;;;;5065557;28;20260;-80
2023/07/01 07:36:46;;;;;;;7.90;7.20;;;27.70;99.90;;;;;;5060967;28;20257;-77
2023/07/01 07:39:13;;;;;;;7.57;6.97;;;27.80;99.90;;;;;;5065632;28;20379;-76
2023/07/01 07:41:40;;;;;;;8.13;7.53;;;27.90;99.90;;;;;;5055990;28;20445;-76
2023/07/01 07:44:07;;;;;;;6.77;6.27;;;27.60;99.90;;;;;;5069738;28;20298;-76
2023/07/01 07:46:36;;;;;;;5.60;5.13;;;27.50;99.90;;;;;;5061345;28;20203;-76
2023/07/01 07:49:03;;;;;;;6.03;5.57;;;27.50;99.90;;;;;;5053753;28;20198;-76
2023/07/01 07:51:29;;;;;;;7.50;6.90;;;27.80;99.90;;;;;;5056931;28;20673;-76
2023/07/01 07:53:56;;;;;;;7.40;6.90;;;27.90;99.90;;;;;;5052665;28;20283;-76
2023/07/01 07:56:23;;;;;;;7.40;6.53;;;28.00;99.90;;;;;;5063542;28;20202;-75
2023/07/01 07:58:50;;;;;;;3.47;2.83;;;28.10;99.90;;;;;;5063974;28;20374;-76
2023/07/01 08:01:16;;;;;;;6.83;5.03;;;28.10;99.90;;;;;;5049828;28;20272;-76
2023/07/01 08:03:44;;;;;;;6.60;5.97;;;28.00;99.90;;;;;;5057429;28;20257;-76
2023/07/01 08:06:11;;;;;;;6.67;6.17;;;28.20;99.90;;;;;;5049530;28;20253;-76
2023/07/01 08:08:38;;;;;;;6.60;4.47;;;28.00;99.90;;;;;;5049983;28;20728;-75
2023/07/01 08:11:05;;;;;;;4.10;2.80;;;27.80;99.90;;;;;;5062542;28;20241;-75
2023/07/01 08:13:31;;;;;;;3.93;2.90;;;27.90;99.90;;;;;;5062474;28;20238;-76
2023/07/01 08:15:59;;;;;;;7.20;6.67;;;28.10;99.90;;;;;;5064334;28;20194;-76
2023/07/01 08:18:26;;;;;;;3.80;2.73;;;28.00;99.90;;;;;;5059178;28;20637;-76
2023/07/01 08:20:54;;;;;;;3.10;2.60;;;27.70;99.90;;;;;;5057148;28;20216;-77
2023/07/01 08:23:21;;;;;;;4.33;4.03;;;27.80;99.90;;;;;;5064649;28;20218;-77
2023/07/01 08:25:48;;;;;;;3.73;2.30;;;27.10;99.90;;;;;;5065286;28;20223;-78
2023/07/01 08:28:14;;;;;;;5.57;2.87;;;27.20;99.90;;;;;;5069517;28;20203;-78
2023/07/01 08:30:41;;;;;;;4.80;2.70;;;27.40;99.90;;;;;;5052232;28;20576;-77
2023/07/01 08:33:08;;;;;;;5.50;5.00;;;27.30;99.90;;;;;;5060445;28;20218;-78
2023/07/01 08:35:35;;;;;;;6.30;5.80;;;27.50;99.90;;;;;;5062234;28;20198;-77
2023/07/01 08:38:03;;;;;;;5.33;4.93;;;27.10;99.90;;;;;;5063155;28;20204;-82
2023/07/01 08:40:30;;;;;;;5.47;2.70;;;27.40;99.90;;;;;;5053249;28;20199;-78
2023/07/01 08:43:01;;;;;;;3.23;2.93;;;27.30;99.90;;;;;;5068648;28;20230;-79
2023/07/01 08:45:30;;;;;;;5.33;2.97;;;27.00;99.90;;;;;;5058900;28;20229;-79
2023/07/01 08:48:00;;;;;;;3.77;3.47;;;27.30;99.90;;;;;;5061525;28;20203;-78
2023/07/01 08:50:34;;;;;;;6.93;4.20;;;27.60;99.90;;;;;;5067053;28;20224;-79
2023/07/01 08:53:06;;;;;;;4.10;3.00;;;27.90;99.90;;;;;;5052939;28;20273;-77
2023/07/01 08:55:34;;;;;;;4.33;2.80;;;28.10;99.90;;;;;;5060077;28;20680;-77
2023/07/01 08:58:02;;;;;;;4.97;3.00;;;28.40;99.90;;;;;;5066780;28;20553;-78
2023/07/01 09:00:30;;;;;;;3.27;2.97;;;28.20;99.90;;;;;;5066780;28;20210;-77
2023/07/01 09:02:58;;;;;;;4.23;3.57;;;27.90;99.90;;;;;;5069296;28;20219;-79
2023/07/01 09:05:25;;;;;;;6.07;5.67;;;27.50;99.90;;;;;;5072763;28;20207;-77
2023/07/01 09:07:51;;;;;;;6.03;5.40;;;27.70;99.90;;;;;;5056315;28;20225;-78
2023/07/01 09:10:20;;;;;;;7.20;6.50;;;28.00;99.90;;;;;;5057774;28;20677;-76
2023/07/01 09:12:47;;;;;;;6.07;5.67;;;28.20;99.90;;;;;;5061144;28;20221;-81
2023/07/01 09:15:13;;;;;;;6.50;6.00;;;28.60;99.90;;;;;;5068841;28;20223;-80
2023/07/01 09:17:42;;;;;;;6.13;5.70;;;28.80;99.90;;;;;;5071210;28;20199;-80
2023/07/01 09:20:11;;;;;;;6.30;5.73;;;28.90;99.90;;;;;;5056977;28;20564;-81
2023/07/01 09:22:40;;;;;;;4.30;2.70;;;29.30;99.90;;;;;;5055132;28;20306;-82
2023/07/01 09:25:08;;;;;;;6.10;5.70;;;29.80;97.80;;;;;;5053673;28;20245;-81
2023/07/01 09:27:42;;;;;;;6.40;5.80;;;30.30;99.80;;;;;;5062344;28;20199;-79
2023/07/01 09:30:25;;;;;;;5.30;4.90;;;30.40;97.70;;;;;;5048582;28;20565;-79
2023/07/01 09:32:52;;;;;;;6.67;6.17;;;30.40;97.30;;;;;;5042375;28;20230;-78
2023/07/01 09:35:19;;;;;;;6.10;5.60;;;30.10;96.40;;;;;;5054627;28;20202;-78
2023/07/01 09:37:45;;;;;;;6.90;6.30;;;29.80;96.90;;;;;;5044150;28;20938;-80
2023/07/01 09:40:20;;;;;;;6.53;6.03;;;29.60;96.80;;;;;;5046699;28;20195;-75
2023/07/01 09:42:52;;;;;;;6.80;6.20;;;29.60;97.20;;;;;;5045161;28;20232;-77
2023/07/01 09:45:19;;;;;;;6.90;6.30;;;29.50;97.50;;;;;;5042376;28;20635;-76
2023/07/01 09:47:51;;;;;;;6.57;6.00;;;29.40;96.80;;;;;;5051161;28;20669;-80
2023/07/01 09:50:22;;;;;;;5.90;5.50;;;29.90;97.20;;;;;;5047986;28;20195;-76
2023/07/01 09:52:52;;;;;;;5.90;5.50;;;29.90;96.00;;;;;;5052171;28;20709;-78
2023/07/01 09:55:19;;;;;;;5.53;5.17;;;29.70;97.00;;;;;;5047718;28;20195;-80
2023/07/01 09:57:46;;;;;;;5.70;5.20;;;29.50;96.00;;;;;;5057875;28;20207;-78
2023/07/01 10:00:17;;;;;;;5.57;5.17;;;29.40;95.90;;;;;;5052300;28;20222;-78
2023/07/01 10:02:44;;;;;;;6.00;5.50;;;29.60;97.00;;;;;;5047018;28;20227;-79
2023/07/01 10:05:13;;;;;;;5.73;5.30;;;29.90;96.30;;;;;;5054027;28;20579;-81
2023/07/01 10:07:40;;;;;;;5.53;5.13;;;30.00;95.20;;;;;;5045620;28;20868;-81
2023/07/01 10:10:12;;;;;;;6.13;5.57;;;29.60;95.10;;;;;;5052163;28;20214;-81
2023/07/01 10:12:41;;;;;;;6.30;5.63;;;29.10;95.00;;;;;;5046604;28;20216;-77
2023/07/01 10:15:09;;;;;;;6.20;5.80;;;28.90;94.70;;;;;;5047610;28;20195;-80
2023/07/01 10:17:48;;;;;;;5.93;5.50;;;29.00;94.70;;;;;;5048197;28;20210;-77
2023/07/01 10:20:26;;;;;;;4.60;4.20;;;28.60;94.50;;;;;;5047786;28;20203;-78
2023/07/01 10:22:54;;;;;;;3.07;2.50;;;28.80;96.20;;;;;;5051609;28;20223;-83
2023/07/01 10:25:30;;;;;;;5.60;5.10;;;28.80;95.80;;;;;;5050689;28;20404;-83
2023/07/01 10:28:07;;;;;;;5.80;5.30;;;29.00;94.20;;;;;;5051623;28;20684;-81
2023/07/01 10:31:14;;;;;;;5.80;5.30;;;29.40;94.10;;;;;;5046842;28;20208;-82
2023/07/01 10:33:57;;;;;;;5.63;4.97;;;29.50;92.90;;;;;;5040422;28;20202;-80
2023/07/01 10:36:24;;;;;;;5.17;4.70;;;29.90;92.70;;;;;;5044272;28;20678;-80
2023/07/01 10:38:51;;;;;;;6.73;6.03;;;29.90;91.90;;;;;;5047465;28;20191;-82
2023/07/01 10:41:50;;;;;;;5.80;5.30;;;29.80;91.30;;;;;;5051445;28;20210;-81
2023/07/01 10:44:25;;;;;;;6.33;5.83;;;29.90;91.70;;;;;;5047845;28;20211;-80
2023/07/01 10:47:15;;;;;;;6.63;6.13;;;29.90;91.50;;;;;;5050870;28;20198;-78
2023/07/01 10:50:09;;;;;;;5.63;5.23;;;29.50;90.80;;;;;;5044161;28;20291;-79
2023/07/01 10:53:02;;;;;;;5.43;4.93;;;29.50;91.80;;;;;;5047348;28;20754;-78
2023/07/01 10:55:40;;;;;;;4.03;2.43;;;29.70;91.40;;;;;;5027825;28;20358;-79
2023/07/01 10:58:22;;;;;;;3.77;3.37;;;29.40;90.90;;;;;;5046048;28;20737;-78
2023/07/01 11:00:49;;;;;;;4.90;4.30;;;29.10;90.50;;;;;;5049284;28;20187;-78
2023/07/01 11:03:53;;;;;;;5.50;5.07;;;28.80;92.20;;;;;;5048156;28;20216;-78
2023/07/01 11:06:22;;;;;;;3.03;2.73;;;28.80;92.40;;;;;;5048192;28;20194;-82
2023/07/01 11:08:50;;;;;;;2.93;2.50;;;28.70;92.00;;;;;;5047905;28;20187;-81
2023/07/01 11:11:25;;;;;;;4.27;3.97;;;28.90;91.90;;;;;;5053980;28;20218;-80
2023/07/01 11:13:57;;;;;;;4.40;4.00;;;29.10;91.80;;;;;;5046369;28;20202;-78
2023/07/01 11:16:26;;;;;;;4.00;3.27;;;29.20;92.60;;;;;;5048218;28;20223;-78
2023/07/01 11:18:54;;;;;;;3.70;3.40;;;28.90;91.60;;;;;;5045480;28;20578;-84
2023/07/01 11:21:24;;;;;;;3.50;2.90;;;28.80;91.80;;;;;;5039224;28;20578;-81
2023/07/01 11:23:52;;;;;;;4.53;2.80;;;28.90;93.40;;;;;;5048357;28;20240;-79
2023/07/01 11:26:20;;;;;;;5.37;4.87;;;28.70;91.00;;;;;;5046965;28;20199;-79
2023/07/01 11:28:47;;;;;;;5.40;4.90;;;28.70;91.80;;;;;;5054400;28;20715;-77
2023/07/01 11:31:16;;;;;;;5.80;5.20;;;28.60;93.40;;;;;;5044189;28;20220;-78
2023/07/01 11:33:44;;;;;;;5.13;2.30;;;28.50;92.80;;;;;;5054588;28;20255;-77
2023/07/01 11:36:13;;;;;;;5.07;2.90;;;28.50;92.80;;;;;;5051908;28;20234;-77
2023/07/01 11:38:44;;;;;;;2.43;2.23;;;28.50;91.80;;;;;;5049478;28;20662;-78
2023/07/01 11:41:14;;;;;;;5.93;4.90;;;28.60;92.50;;;;;;5046294;28;20199;-76
2023/07/01 11:43:41;;;;;;;5.53;5.00;;;28.70;92.40;;;;;;5041928;28;20230;-79
2023/07/01 11:46:08;;;;;;;8.10;5.33;;;28.70;92.00;;;;;;5040139;28;20678;-78
2023/07/01 11:48:34;;;;;;;7.97;5.53;;;28.80;90.90;;;;;;5047176;28;20195;-79
2023/07/01 11:51:02;;;;;;;6.37;5.57;;;28.90;90.80;;;;;;5050191;28;20268;-78
2023/07/01 11:53:28;;;;;;;5.90;5.40;;;28.90;91.20;;;;;;5047306;28;20282;-78
2023/07/01 11:55:58;;;;;;;5.40;5.10;;;28.90;91.90;;;;;;5053327;28;20543;-77
2023/07/01 11:58:28;;;;;;;5.23;4.93;;;29.00;91.60;;;;;;5049394;28;20207;-77
2023/07/01 12:00:54;;;;;;;5.70;5.20;;;29.00;90.50;;;;;;5048573;28;20644;-79
2023/07/01 12:03:21;;;;;;;5.63;5.20;;;28.90;91.10;;;;;;5051649;28;20260;-81
2023/07/01 12:05:49;;;;;;;6.10;5.50;;;28.80;91.20;;;;;;5038707;28;20226;-83
2023/07/01 12:08:15;;;;;;;5.63;5.20;;;28.50;91.50;;;;;;5039756;28;20753;-76
2023/07/01 12:10:42;;;;;;;6.07;5.23;;;28.20;92.20;;;;;;5054985;28;20282;-78
2023/07/01 12:13:29;;;;;;;5.73;5.33;;;28.00;91.40;;;;;;5043092;28;20733;-77
2023/07/01 12:15:58;;;;;;;6.10;5.50;;;28.00;93.10;;;;;;5039317;28;20723;-79
2023/07/01 12:18:27;;;;;;;6.07;5.57;;;27.80;92.80;;;;;;5039156;28;20209;-78
2023/07/01 12:20:54;;;;;;;5.30;2.40;;;27.60;93.10;;;;;;5048873;28;20207;-76
2023/07/01 12:23:21;;;;;;;4.90;4.50;;;27.30;93.00;;;;;;5051533;28;20229;-78
2023/07/01 12:25:48;;;;;;;6.80;3.80;;;27.00;93.70;;;;;;5053558;28;20198;-78
2023/07/01 12:28:16;;;;;;;5.67;4.60;;;26.80;94.80;;;;;;5043780;28;20245;-79
2023/07/01 12:30:43;;;;;;;4.93;4.53;;;26.80;94.80;;;;;;5045277;28;20199;-77
2023/07/01 12:33:10;;;;;;;6.60;3.40;;;26.80;94.20;;;;;;5044752;28;20286;-74
2023/07/01 12:35:40;;;;;;;5.87;2.63;;;26.70;95.10;;;;;;5044189;28;20684;-76
2023/07/01 12:38:10;;;;;;;3.07;2.20;;;26.50;95.70;;;;;;5047860;28;20199;-76
2023/07/01 12:40:37;;;;;;;5.03;3.10;;;26.40;95.50;;;;;;5049562;28;20203;-76
2023/07/01 12:43:06;;;;;;;4.77;4.20;;;26.20;95.50;;;;;;5048304;28;20642;-76
2023/07/01 12:45:34;;;;;;;2.33;2.13;;;26.20;95.70;;;;;;5046909;28;20637;-78
2023/07/01 12:48:01;;;;;;;4.17;2.13;;;26.10;96.70;;;;;;5049926;28;20370;-78
2023/07/01 12:50:28;;;;;;;3.40;2.27;;;26.10;96.20;;;;;;5045596;28;20645;-79
2023/07/01 12:52:55;;;;;;;5.00;3.00;;;26.10;96.20;;;;;;5046465;28;20639;-75
2023/07/01 12:55:21;;;;;;;3.93;2.63;;;26.10;95.80;;;;;;5047536;28;20713;-75